sensor_id;sensor_type;location;lat;lon;timestamp;temperature;humidity
9057;DHT22;4563;54.756;9.400;2024-03-06T00:00:43;6.80;78.20
9057;DHT22;4563;54.756;9.400;2024-03-06T00:03:10;6.80;78.30
9057;DHT22;4563;54.756;9.400;2024-03-06T00:05:38;6.80;78.30
9057;DHT22;4563;54.756;9.400;2024-03-06T00:08:05;6.70;78.20
9057;DHT22;4563;54.756;9.400;2024-03-06T00:10:32;6.70;78.20
9057;DHT22;4563;54.756;9.400;2024-03-06T00:12:59;6.70;78.20
9057;DHT22;4563;54.756;9.400;2024-03-06T00:15:26;6.70;78.30
9057;DHT22;4563;54.756;9.400;2024-03-06T00:17:53;6.70;78.20
9057;DHT22;4563;54.756;9.400;2024-03-06T00:20:19;6.70;78.30
9057;DHT22;4563;54.756;9.400;2024-03-06T00:22:48;6.70;78.30
9057;DHT22;4563;54.756;9.400;2024-03-06T00:25:15;6.70;78.30
9057;DHT22;4563;54.756;9.400;2024-03-06T00:27:43;6.70;78.40
9057;DHT22;4563;54.756;9.400;2024-03-06T00:30:10;6.70;78.40
9057;DHT22;4563;54.756;9.400;2024-03-06T00:32:38;6.70;78.40
9057;DHT22;4563;54.756;9.400;2024-03-06T00:35:05;6.70;78.40
9057;DHT22;4563;54.756;9.400;2024-03-06T00:37:32;6.70;78.40
9057;DHT22;4563;54.756;9.400;2024-03-06T00:40:00;6.70;78.40
9057;DHT22;4563;54.756;9.400;2024-03-06T00:42:27;6.70;78.40
9057;DHT22;4563;54.756;9.400;2024-03-06T00:44:54;6.70;78.40
9057;DHT22;4563;54.756;9.400;2024-03-06T00:47:20;6.70;78.40
9057;DHT22;4563;54.756;9.400;2024-03-06T00:49:47;6.70;78.50
9057;DHT22;4563;54.756;9.400;2024-03-06T00:52:14;6.70;78.50
9057;DHT22;4563;54.756;9.400;2024-03-06T00:54:41;6.70;78.50
9057;DHT22;4563;54.756;9.400;2024-03-06T00:57:09;6.80;78.70
9057;DHT22;4563;54.756;9.400;2024-03-06T00:59:35;6.70;78.50
9057;DHT22;4563;54.756;9.400;2024-03-06T01:02:02;6.80;78.60
9057;DHT22;4563;54.756;9.400;2024-03-06T01:04:29;6.80;78.60
9057;DHT22;4563;54.756;9.400;2024-03-06T01:06:55;6.70;78.60
9057;DHT22;4563;54.756;9.400;2024-03-06T01:09:23;6.70;78.60
9057;DHT22;4563;54.756;9.400;2024-03-06T01:11:52;6.70;78.60
9057;DHT22;4563;54.756;9.400;2024-03-06T01:14:20;6.80;78.70
9057;DHT22;4563;54.756;9.400;2024-03-06T01:16:47;6.80;78.70
9057;DHT22;4563;54.756;9.400;2024-03-06T01:19:14;6.80;78.80
9057;DHT22;4563;54.756;9.400;2024-03-06T01:21:41;6.80;78.70
9057;DHT22;4563;54.756;9.400;2024-03-06T01:24:07;6.80;78.80
9057;DHT22;4563;54.756;9.400;2024-03-06T01:26:34;6.80;78.80
9057;DHT22;4563;54.756;9.400;2024-03-06T01:29:01;6.80;78.80
9057;DHT22;4563;54.756;9.400;2024-03-06T01:31:29;6.80;78.80
9057;DHT22;4563;54.756;9.400;2024-03-06T01:33:56;6.80;78.80
9057;DHT22;4563;54.756;9.400;2024-03-06T01:36:22;6.80;78.80
9057;DHT22;4563;54.756;9.400;2024-03-06T01:38:49;6.80;78.80
9057;DHT22;4563;54.756;9.400;2024-03-06T01:41:17;6.80;78.90
9057;DHT22;4563;54.756;9.400;2024-03-06T01:43:44;6.80;78.80
9057;DHT22;4563;54.756;9.400;2024-03-06T01:46:10;6.70;78.70
9057;DHT22;4563;54.756;9.400;2024-03-06T01:48:39;6.80;78.90
9057;DHT22;4563;54.756;9.400;2024-03-06T01:51:08;6.80;78.90
9057;DHT22;4563;54.756;9.400;2024-03-06T01:53:35;6.80;78.90
9057;DHT22;4563;54.756;9.400;2024-03-06T01:56:03;6.80;78.90
9057;DHT22;4563;54.756;9.400;2024-03-06T01:58:31;6.80;78.90
9057;DHT22;4563;54.756;9.400;2024-03-06T02:00:59;6.70;78.80
9057;DHT22;4563;54.756;9.400;2024-03-06T02:03:26;6.70;78.80
9057;DHT22;4563;54.756;9.400;2024-03-06T02:05:55;6.70;78.80
9057;DHT22;4563;54.756;9.400;2024-03-06T02:08:23;6.70;78.80
9057;DHT22;4563;54.756;9.400;2024-03-06T02:10:50;6.70;78.80
9057;DHT22;4563;54.756;9.400;2024-03-06T02:13:17;6.70;78.80
9057;DHT22;4563;54.756;9.400;2024-03-06T02:15:44;6.70;78.80
9057;DHT22;4563;54.756;9.400;2024-03-06T02:18:11;6.70;78.80
9057;DHT22;4563;54.756;9.400;2024-03-06T02:20:39;6.70;78.80
9057;DHT22;4563;54.756;9.400;2024-03-06T02:23:06;6.70;78.80
9057;DHT22;4563;54.756;9.400;2024-03-06T02:25:33;6.60;78.80
9057;DHT22;4563;54.756;9.400;2024-03-06T02:28:00;6.70;79.70
9057;DHT22;4563;54.756;9.400;2024-03-06T02:30:27;6.70;79.00
9057;DHT22;4563;54.756;9.400;2024-03-06T02:32:56;6.70;79.00
9057;DHT22;4563;54.756;9.400;2024-03-06T02:35:22;6.60;78.90
9057;DHT22;4563;54.756;9.400;2024-03-06T02:37:51;6.60;79.00
9057;DHT22;4563;54.756;9.400;2024-03-06T02:40:17;6.60;79.00
9057;DHT22;4563;54.756;9.400;2024-03-06T02:42:44;6.60;79.00
9057;DHT22;4563;54.756;9.400;2024-03-06T02:45:11;6.60;79.10
9057;DHT22;4563;54.756;9.400;2024-03-06T02:47:39;6.60;79.10
9057;DHT22;4563;54.756;9.400;2024-03-06T02:50:06;6.60;79.10
9057;DHT22;4563;54.756;9.400;2024-03-06T02:52:33;6.60;79.20
9057;DHT22;4563;54.756;9.400;2024-03-06T02:55:02;6.60;79.20
9057;DHT22;4563;54.756;9.400;2024-03-06T02:57:28;6.60;79.20
9057;DHT22;4563;54.756;9.400;2024-03-06T02:59:56;6.60;79.20
9057;DHT22;4563;54.756;9.400;2024-03-06T03:02:22;6.60;79.30
9057;DHT22;4563;54.756;9.400;2024-03-06T03:04:49;6.60;79.30
9057;DHT22;4563;54.756;9.400;2024-03-06T03:07:17;6.60;79.30
9057;DHT22;4563;54.756;9.400;2024-03-06T03:09:44;6.50;79.20
9057;DHT22;4563;54.756;9.400;2024-03-06T03:12:13;6.60;79.30
9057;DHT22;4563;54.756;9.400;2024-03-06T03:14:40;6.50;79.30
9057;DHT22;4563;54.756;9.400;2024-03-06T03:17:07;6.50;79.30
9057;DHT22;4563;54.756;9.400;2024-03-06T03:19:34;6.50;79.40
9057;DHT22;4563;54.756;9.400;2024-03-06T03:22:01;6.50;79.40
9057;DHT22;4563;54.756;9.400;2024-03-06T03:24:29;6.50;79.40
9057;DHT22;4563;54.756;9.400;2024-03-06T03:26:56;6.50;79.40
9057;DHT22;4563;54.756;9.400;2024-03-06T03:29:24;6.50;79.40
9057;DHT22;4563;54.756;9.400;2024-03-06T03:31:51;6.50;79.40
9057;DHT22;4563;54.756;9.400;2024-03-06T03:34:18;6.50;79.40
9057;DHT22;4563;54.756;9.400;2024-03-06T03:36:46;6.50;79.50
9057;DHT22;4563;54.756;9.400;2024-03-06T03:39:14;6.50;79.50
9057;DHT22;4563;54.756;9.400;2024-03-06T03:41:44;6.50;79.50
9057;DHT22;4563;54.756;9.400;2024-03-06T03:44:12;6.50;79.50
9057;DHT22;4563;54.756;9.400;2024-03-06T03:46:40;6.50;79.50
9057;DHT22;4563;54.756;9.400;2024-03-06T03:49:07;6.50;79.50
9057;DHT22;4563;54.756;9.400;2024-03-06T03:51:34;6.50;79.60
9057;DHT22;4563;54.756;9.400;2024-03-06T03:54:01;6.50;79.60
9057;DHT22;4563;54.756;9.400;2024-03-06T03:56:28;6.50;79.60
9057;DHT22;4563;54.756;9.400;2024-03-06T03:58:56;6.50;79.60
9057;DHT22;4563;54.756;9.400;2024-03-06T04:01:22;6.50;79.60
9057;DHT22;4563;54.756;9.400;2024-03-06T04:03:51;6.50;79.70
9057;DHT22;4563;54.756;9.400;2024-03-06T04:06:18;6.50;79.70
9057;DHT22;4563;54.756;9.400;2024-03-06T04:08:45;6.50;79.70
9057;DHT22;4563;54.756;9.400;2024-03-06T04:11:12;6.50;79.70
9057;DHT22;4563;54.756;9.400;2024-03-06T04:13:39;6.50;79.70
9057;DHT22;4563;54.756;9.400;2024-03-06T04:16:06;6.50;79.70
9057;DHT22;4563;54.756;9.400;2024-03-06T04:18:33;6.50;79.80
9057;DHT22;4563;54.756;9.400;2024-03-06T04:21:03;6.50;79.80
9057;DHT22;4563;54.756;9.400;2024-03-06T04:23:30;6.50;79.80
9057;DHT22;4563;54.756;9.400;2024-03-06T04:25:58;6.50;79.80
9057;DHT22;4563;54.756;9.400;2024-03-06T04:28:25;6.50;79.90
9057;DHT22;4563;54.756;9.400;2024-03-06T04:30:55;6.50;79.80
9057;DHT22;4563;54.756;9.400;2024-03-06T04:33:21;6.50;79.90
9057;DHT22;4563;54.756;9.400;2024-03-06T04:35:48;6.40;79.80
9057;DHT22;4563;54.756;9.400;2024-03-06T04:38:16;6.40;79.80
9057;DHT22;4563;54.756;9.400;2024-03-06T04:40:43;6.50;79.90
9057;DHT22;4563;54.756;9.400;2024-03-06T04:43:10;6.50;79.90
9057;DHT22;4563;54.756;9.400;2024-03-06T04:45:37;6.40;79.80
9057;DHT22;4563;54.756;9.400;2024-03-06T04:48:07;6.40;79.80
9057;DHT22;4563;54.756;9.400;2024-03-06T04:50:34;6.50;80.00
9057;DHT22;4563;54.756;9.400;2024-03-06T04:53:00;6.40;79.90
9057;DHT22;4563;54.756;9.400;2024-03-06T04:55:29;6.40;79.90
9057;DHT22;4563;54.756;9.400;2024-03-06T04:57:56;6.40;79.90
9057;DHT22;4563;54.756;9.400;2024-03-06T05:00:23;6.40;79.90
9057;DHT22;4563;54.756;9.400;2024-03-06T05:02:50;6.40;79.90
9057;DHT22;4563;54.756;9.400;2024-03-06T05:05:17;6.40;79.90
9057;DHT22;4563;54.756;9.400;2024-03-06T05:07:44;6.40;80.00
9057;DHT22;4563;54.756;9.400;2024-03-06T05:10:11;6.40;80.00
9057;DHT22;4563;54.756;9.400;2024-03-06T05:12:39;6.40;80.00
9057;DHT22;4563;54.756;9.400;2024-03-06T05:15:06;6.40;80.00
9057;DHT22;4563;54.756;9.400;2024-03-06T05:17:33;6.40;80.00
9057;DHT22;4563;54.756;9.400;2024-03-06T05:20:00;6.40;80.00
9057;DHT22;4563;54.756;9.400;2024-03-06T05:22:29;6.40;80.00
9057;DHT22;4563;54.756;9.400;2024-03-06T05:24:57;6.40;80.00
9057;DHT22;4563;54.756;9.400;2024-03-06T05:27:23;6.40;80.00
9057;DHT22;4563;54.756;9.400;2024-03-06T05:29:52;6.40;80.00
9057;DHT22;4563;54.756;9.400;2024-03-06T05:32:18;6.40;80.10
9057;DHT22;4563;54.756;9.400;2024-03-06T05:34:45;6.40;80.10
9057;DHT22;4563;54.756;9.400;2024-03-06T05:37:12;6.40;80.20
9057;DHT22;4563;54.756;9.400;2024-03-06T05:39:39;6.50;80.20
9057;DHT22;4563;54.756;9.400;2024-03-06T05:42:08;6.40;80.10
9057;DHT22;4563;54.756;9.400;2024-03-06T05:44:34;6.40;80.10
9057;DHT22;4563;54.756;9.400;2024-03-06T05:47:03;6.40;80.10
9057;DHT22;4563;54.756;9.400;2024-03-06T05:49:29;6.40;80.10
9057;DHT22;4563;54.756;9.400;2024-03-06T05:51:58;6.40;80.10
9057;DHT22;4563;54.756;9.400;2024-03-06T05:54:25;6.50;80.20
9057;DHT22;4563;54.756;9.400;2024-03-06T05:56:53;6.40;80.10
9057;DHT22;4563;54.756;9.400;2024-03-06T05:59:20;6.50;80.20
9057;DHT22;4563;54.756;9.400;2024-03-06T06:01:47;6.40;80.10
9057;DHT22;4563;54.756;9.400;2024-03-06T06:04:16;6.50;80.30
9057;DHT22;4563;54.756;9.400;2024-03-06T06:06:43;6.50;80.30
9057;DHT22;4563;54.756;9.400;2024-03-06T06:09:10;6.40;80.10
9057;DHT22;4563;54.756;9.400;2024-03-06T06:11:41;6.40;80.20
9057;DHT22;4563;54.756;9.400;2024-03-06T06:14:08;6.40;80.20
9057;DHT22;4563;54.756;9.400;2024-03-06T06:16:36;6.50;80.30
9057;DHT22;4563;54.756;9.400;2024-03-06T06:19:03;6.40;80.30
9057;DHT22;4563;54.756;9.400;2024-03-06T06:21:32;6.40;80.20
9057;DHT22;4563;54.756;9.400;2024-03-06T06:24:01;6.40;80.20
9057;DHT22;4563;54.756;9.400;2024-03-06T06:26:29;6.40;80.30
9057;DHT22;4563;54.756;9.400;2024-03-06T06:28:56;6.40;80.30
9057;DHT22;4563;54.756;9.400;2024-03-06T06:31:23;6.40;80.30
9057;DHT22;4563;54.756;9.400;2024-03-06T06:33:52;6.40;80.30
9057;DHT22;4563;54.756;9.400;2024-03-06T06:36:21;6.40;80.40
9057;DHT22;4563;54.756;9.400;2024-03-06T06:38:49;6.40;80.30
9057;DHT22;4563;54.756;9.400;2024-03-06T06:41:17;6.40;80.40
9057;DHT22;4563;54.756;9.400;2024-03-06T06:43:44;6.40;80.40
9057;DHT22;4563;54.756;9.400;2024-03-06T06:46:11;6.40;80.40
9057;DHT22;4563;54.756;9.400;2024-03-06T06:48:38;6.40;80.40
9057;DHT22;4563;54.756;9.400;2024-03-06T06:51:05;6.40;80.40
9057;DHT22;4563;54.756;9.400;2024-03-06T06:53:32;6.40;80.40
9057;DHT22;4563;54.756;9.400;2024-03-06T06:56:00;6.40;80.40
9057;DHT22;4563;54.756;9.400;2024-03-06T06:58:27;6.40;80.40
9057;DHT22;4563;54.756;9.400;2024-03-06T07:00:53;6.40;80.40
9057;DHT22;4563;54.756;9.400;2024-03-06T07:03:20;6.40;80.40
9057;DHT22;4563;54.756;9.400;2024-03-06T07:05:48;6.40;80.40
9057;DHT22;4563;54.756;9.400;2024-03-06T07:08:15;6.40;80.50
9057;DHT22;4563;54.756;9.400;2024-03-06T07:10:42;6.40;80.50
9057;DHT22;4563;54.756;9.400;2024-03-06T07:13:10;6.50;80.60
9057;DHT22;4563;54.756;9.400;2024-03-06T07:15:37;6.50;80.60
9057;DHT22;4563;54.756;9.400;2024-03-06T07:18:04;6.50;80.60
9057;DHT22;4563;54.756;9.400;2024-03-06T07:20:31;6.50;80.70
9057;DHT22;4563;54.756;9.400;2024-03-06T07:22:57;6.50;80.70
9057;DHT22;4563;54.756;9.400;2024-03-06T07:25:24;6.50;80.70
9057;DHT22;4563;54.756;9.400;2024-03-06T07:27:51;6.50;80.70
9057;DHT22;4563;54.756;9.400;2024-03-06T07:30:19;6.50;80.70
9057;DHT22;4563;54.756;9.400;2024-03-06T07:32:46;6.50;80.70
9057;DHT22;4563;54.756;9.400;2024-03-06T07:35:13;6.50;80.70
9057;DHT22;4563;54.756;9.400;2024-03-06T07:37:40;6.50;80.70
9057;DHT22;4563;54.756;9.400;2024-03-06T07:40:10;6.50;80.70
9057;DHT22;4563;54.756;9.400;2024-03-06T07:42:37;6.60;80.90
9057;DHT22;4563;54.756;9.400;2024-03-06T07:45:05;6.60;80.90
9057;DHT22;4563;54.756;9.400;2024-03-06T07:47:34;6.60;80.90
9057;DHT22;4563;54.756;9.400;2024-03-06T07:50:03;6.60;80.80
9057;DHT22;4563;54.756;9.400;2024-03-06T07:52:31;6.60;80.90
9057;DHT22;4563;54.756;9.400;2024-03-06T07:54:58;6.60;80.90
9057;DHT22;4563;54.756;9.400;2024-03-06T07:57:25;6.60;80.90
9057;DHT22;4563;54.756;9.400;2024-03-06T07:59:52;6.60;80.90
9057;DHT22;4563;54.756;9.400;2024-03-06T08:02:20;6.60;80.90
9057;DHT22;4563;54.756;9.400;2024-03-06T08:04:48;6.60;81.00
9057;DHT22;4563;54.756;9.400;2024-03-06T08:07:15;6.70;81.10
9057;DHT22;4563;54.756;9.400;2024-03-06T08:09:41;6.60;81.00
9057;DHT22;4563;54.756;9.400;2024-03-06T08:12:08;6.60;81.00
9057;DHT22;4563;54.756;9.400;2024-03-06T08:14:35;6.70;81.10
9057;DHT22;4563;54.756;9.400;2024-03-06T08:17:02;6.70;81.10
9057;DHT22;4563;54.756;9.400;2024-03-06T08:19:29;6.70;81.20
9057;DHT22;4563;54.756;9.400;2024-03-06T08:21:57;6.70;81.20
9057;DHT22;4563;54.756;9.400;2024-03-06T08:24:24;6.70;81.20
9057;DHT22;4563;54.756;9.400;2024-03-06T08:26:51;6.70;81.20
9057;DHT22;4563;54.756;9.400;2024-03-06T08:29:18;6.70;81.20
9057;DHT22;4563;54.756;9.400;2024-03-06T08:31:45;6.70;81.20
9057;DHT22;4563;54.756;9.400;2024-03-06T08:34:12;6.80;81.30
9057;DHT22;4563;54.756;9.400;2024-03-06T08:36:38;6.80;81.30
9057;DHT22;4563;54.756;9.400;2024-03-06T08:39:06;6.80;81.30
9057;DHT22;4563;54.756;9.400;2024-03-06T08:41:38;6.80;81.30
9057;DHT22;4563;54.756;9.400;2024-03-06T08:44:04;6.80;81.30
9057;DHT22;4563;54.756;9.400;2024-03-06T08:46:31;6.90;81.40
9057;DHT22;4563;54.756;9.400;2024-03-06T08:48:58;6.90;81.40
9057;DHT22;4563;54.756;9.400;2024-03-06T08:51:26;6.90;81.40
9057;DHT22;4563;54.756;9.400;2024-03-06T08:53:53;6.90;81.40
9057;DHT22;4563;54.756;9.400;2024-03-06T08:56:21;6.90;81.40
9057;DHT22;4563;54.756;9.400;2024-03-06T08:58:47;6.90;81.40
9057;DHT22;4563;54.756;9.400;2024-03-06T09:01:14;6.90;81.40
9057;DHT22;4563;54.756;9.400;2024-03-06T09:03:41;7.00;81.50
9057;DHT22;4563;54.756;9.400;2024-03-06T09:06:08;7.00;81.50
9057;DHT22;4563;54.756;9.400;2024-03-06T09:08:35;7.00;81.50
9057;DHT22;4563;54.756;9.400;2024-03-06T09:11:01;7.10;81.60
9057;DHT22;4563;54.756;9.400;2024-03-06T09:13:29;7.10;81.60
9057;DHT22;4563;54.756;9.400;2024-03-06T09:15:56;7.10;81.60
9057;DHT22;4563;54.756;9.400;2024-03-06T09:18:24;7.10;81.60
9057;DHT22;4563;54.756;9.400;2024-03-06T09:20:51;7.10;81.60
9057;DHT22;4563;54.756;9.400;2024-03-06T09:23:18;7.20;81.70
9057;DHT22;4563;54.756;9.400;2024-03-06T09:25:45;7.20;81.70
9057;DHT22;4563;54.756;9.400;2024-03-06T09:28:12;7.20;81.70
9057;DHT22;4563;54.756;9.400;2024-03-06T09:30:40;7.20;81.70
9057;DHT22;4563;54.756;9.400;2024-03-06T09:33:07;7.20;81.70
9057;DHT22;4563;54.756;9.400;2024-03-06T09:35:34;7.20;81.70
9057;DHT22;4563;54.756;9.400;2024-03-06T09:38:00;7.20;81.70
9057;DHT22;4563;54.756;9.400;2024-03-06T09:40:28;7.30;81.80
9057;DHT22;4563;54.756;9.400;2024-03-06T09:42:55;7.30;81.80
9057;DHT22;4563;54.756;9.400;2024-03-06T09:45:22;7.30;81.80
9057;DHT22;4563;54.756;9.400;2024-03-06T09:47:50;7.30;81.80
9057;DHT22;4563;54.756;9.400;2024-03-06T09:50:18;7.30;81.70
9057;DHT22;4563;54.756;9.400;2024-03-06T09:52:51;7.40;81.90
9057;DHT22;4563;54.756;9.400;2024-03-06T09:55:18;7.40;81.90
9057;DHT22;4563;54.756;9.400;2024-03-06T09:57:45;7.40;81.80
9057;DHT22;4563;54.756;9.400;2024-03-06T10:00:12;7.40;81.80
9057;DHT22;4563;54.756;9.400;2024-03-06T10:02:46;7.40;81.80
9057;DHT22;4563;54.756;9.400;2024-03-06T10:05:23;7.40;81.80
9057;DHT22;4563;54.756;9.400;2024-03-06T10:07:50;7.40;81.90
9057;DHT22;4563;54.756;9.400;2024-03-06T10:10:19;7.40;81.80
9057;DHT22;4563;54.756;9.400;2024-03-06T10:12:48;7.40;81.80
9057;DHT22;4563;54.756;9.400;2024-03-06T10:15:15;7.40;81.80
9057;DHT22;4563;54.756;9.400;2024-03-06T10:17:42;7.50;81.90
9057;DHT22;4563;54.756;9.400;2024-03-06T10:20:18;7.50;81.90
9057;DHT22;4563;54.756;9.400;2024-03-06T10:22:49;7.50;81.90
9057;DHT22;4563;54.756;9.400;2024-03-06T10:25:18;7.50;81.90
9057;DHT22;4563;54.756;9.400;2024-03-06T10:27:45;7.50;81.90
9057;DHT22;4563;54.756;9.400;2024-03-06T10:30:13;7.50;81.80
9057;DHT22;4563;54.756;9.400;2024-03-06T10:32:41;7.60;81.90
9057;DHT22;4563;54.756;9.400;2024-03-06T10:35:18;7.60;81.90
9057;DHT22;4563;54.756;9.400;2024-03-06T10:37:46;7.60;81.90
9057;DHT22;4563;54.756;9.400;2024-03-06T10:40:15;7.60;81.80
9057;DHT22;4563;54.756;9.400;2024-03-06T10:42:45;7.70;81.90
9057;DHT22;4563;54.756;9.400;2024-03-06T10:45:13;7.70;81.90
9057;DHT22;4563;54.756;9.400;2024-03-06T10:47:41;7.70;81.90
9057;DHT22;4563;54.756;9.400;2024-03-06T10:50:14;7.70;81.90
9057;DHT22;4563;54.756;9.400;2024-03-06T10:52:42;7.70;81.80
9057;DHT22;4563;54.756;9.400;2024-03-06T10:55:13;7.70;81.80
9057;DHT22;4563;54.756;9.400;2024-03-06T10:57:42;7.80;81.90
9057;DHT22;4563;54.756;9.400;2024-03-06T11:00:11;7.80;81.80
9057;DHT22;4563;54.756;9.400;2024-03-06T11:02:45;7.80;81.90
9057;DHT22;4563;54.756;9.400;2024-03-06T11:05:14;7.80;81.90
9057;DHT22;4563;54.756;9.400;2024-03-06T11:07:41;7.80;81.80
9057;DHT22;4563;54.756;9.400;2024-03-06T11:10:09;7.80;81.70
9057;DHT22;4563;54.756;9.400;2024-03-06T11:12:43;7.80;81.80
9057;DHT22;4563;54.756;9.400;2024-03-06T11:15:14;7.80;81.70
9057;DHT22;4563;54.756;9.400;2024-03-06T11:17:41;7.90;81.80
9057;DHT22;4563;54.756;9.400;2024-03-06T11:20:13;7.90;81.80
9057;DHT22;4563;54.756;9.400;2024-03-06T11:23:02;7.90;81.80
9057;DHT22;4563;54.756;9.400;2024-03-06T11:26:02;7.90;81.80
9057;DHT22;4563;54.756;9.400;2024-03-06T11:28:32;7.90;81.80
9057;DHT22;4563;54.756;9.400;2024-03-06T11:31:01;8.00;81.70
9057;DHT22;4563;54.756;9.400;2024-03-06T11:33:34;8.00;81.70
9057;DHT22;4563;54.756;9.400;2024-03-06T11:36:18;8.00;81.70
9057;DHT22;4563;54.756;9.400;2024-03-06T11:38:52;8.00;81.70
9057;DHT22;4563;54.756;9.400;2024-03-06T11:41:20;8.10;81.80
9057;DHT22;4563;54.756;9.400;2024-03-06T11:43:50;8.00;81.60
9057;DHT22;4563;54.756;9.400;2024-03-06T11:46:19;8.10;81.60
9057;DHT22;4563;54.756;9.400;2024-03-06T11:48:52;8.10;81.60
9057;DHT22;4563;54.756;9.400;2024-03-06T11:51:18;8.10;81.50
9057;DHT22;4563;54.756;9.400;2024-03-06T11:53:45;8.10;81.50
9057;DHT22;4563;54.756;9.400;2024-03-06T11:56:13;8.20;81.50
9057;DHT22;4563;54.756;9.400;2024-03-06T11:58:39;8.20;81.50
9057;DHT22;4563;54.756;9.400;2024-03-06T12:01:07;8.10;81.30
9057;DHT22;4563;54.756;9.400;2024-03-06T12:03:35;8.20;81.40
9057;DHT22;4563;54.756;9.400;2024-03-06T12:06:02;8.20;81.40
9057;DHT22;4563;54.756;9.400;2024-03-06T12:08:29;8.20;81.30
9057;DHT22;4563;54.756;9.400;2024-03-06T12:10:55;8.20;82.00
9057;DHT22;4563;54.756;9.400;2024-03-06T12:13:23;8.20;81.20
9057;DHT22;4563;54.756;9.400;2024-03-06T12:15:50;8.20;81.10
9057;DHT22;4563;54.756;9.400;2024-03-06T12:18:20;8.20;81.10
9057;DHT22;4563;54.756;9.400;2024-03-06T12:20:50;8.20;81.10
9057;DHT22;4563;54.756;9.400;2024-03-06T12:23:20;8.20;81.00
9057;DHT22;4563;54.756;9.400;2024-03-06T12:26:02;8.20;81.00
9057;DHT22;4563;54.756;9.400;2024-03-06T12:28:29;8.20;81.00
9057;DHT22;4563;54.756;9.400;2024-03-06T12:30:56;8.30;81.00
9057;DHT22;4563;54.756;9.400;2024-03-06T12:33:27;8.20;80.90
9057;DHT22;4563;54.756;9.400;2024-03-06T12:36:05;8.30;80.90
9057;DHT22;4563;54.756;9.400;2024-03-06T12:38:35;8.30;80.90
9057;DHT22;4563;54.756;9.400;2024-03-06T12:41:03;8.30;80.80
9057;DHT22;4563;54.756;9.400;2024-03-06T12:43:31;8.30;80.80
9057;DHT22;4563;54.756;9.400;2024-03-06T12:46:00;8.30;80.70
9057;DHT22;4563;54.756;9.400;2024-03-06T12:48:29;8.30;80.50
9057;DHT22;4563;54.756;9.400;2024-03-06T12:50:56;8.30;80.40
9057;DHT22;4563;54.756;9.400;2024-03-06T12:53:30;8.30;80.30
9057;DHT22;4563;54.756;9.400;2024-03-06T12:55:57;8.30;80.30
9057;DHT22;4563;54.756;9.400;2024-03-06T12:58:24;8.30;80.30
9057;DHT22;4563;54.756;9.400;2024-03-06T13:00:51;8.30;80.30
9057;DHT22;4563;54.756;9.400;2024-03-06T13:03:17;8.30;80.30
9057;DHT22;4563;54.756;9.400;2024-03-06T13:05:46;8.30;80.10
9057;DHT22;4563;54.756;9.400;2024-03-06T13:08:12;8.30;80.10
9057;DHT22;4563;54.756;9.400;2024-03-06T13:10:40;8.30;80.10
9057;DHT22;4563;54.756;9.400;2024-03-06T13:13:07;8.30;80.00
9057;DHT22;4563;54.756;9.400;2024-03-06T13:15:34;8.30;79.90
9057;DHT22;4563;54.756;9.400;2024-03-06T13:18:02;8.30;79.80
9057;DHT22;4563;54.756;9.400;2024-03-06T13:20:29;8.30;79.80
9057;DHT22;4563;54.756;9.400;2024-03-06T13:22:59;8.30;80.50
9057;DHT22;4563;54.756;9.400;2024-03-06T13:25:26;8.30;79.60
9057;DHT22;4563;54.756;9.400;2024-03-06T13:27:53;8.40;79.70
9057;DHT22;4563;54.756;9.400;2024-03-06T13:30:20;8.40;79.70
9057;DHT22;4563;54.756;9.400;2024-03-06T13:32:47;8.40;79.60
9057;DHT22;4563;54.756;9.400;2024-03-06T13:35:14;8.30;79.50
9057;DHT22;4563;54.756;9.400;2024-03-06T13:37:42;8.30;79.40
9057;DHT22;4563;54.756;9.400;2024-03-06T13:40:11;8.40;79.50
9057;DHT22;4563;54.756;9.400;2024-03-06T13:42:39;8.40;79.50
9057;DHT22;4563;54.756;9.400;2024-03-06T13:45:07;8.40;80.10
9057;DHT22;4563;54.756;9.400;2024-03-06T13:47:37;8.40;79.30
9057;DHT22;4563;54.756;9.400;2024-03-06T13:50:06;8.40;79.30
9057;DHT22;4563;54.756;9.400;2024-03-06T13:52:34;8.40;79.20
9057;DHT22;4563;54.756;9.400;2024-03-06T13:55:01;8.40;79.90
9057;DHT22;4563;54.756;9.400;2024-03-06T13:57:34;8.40;79.20
9057;DHT22;4563;54.756;9.400;2024-03-06T14:00:02;8.40;79.20
9057;DHT22;4563;54.756;9.400;2024-03-06T14:02:30;8.40;79.20
9057;DHT22;4563;54.756;9.400;2024-03-06T14:04:57;8.40;79.10
9057;DHT22;4563;54.756;9.400;2024-03-06T14:07:25;8.40;79.10
9057;DHT22;4563;54.756;9.400;2024-03-06T14:09:52;8.40;79.10
9057;DHT22;4563;54.756;9.400;2024-03-06T14:12:19;8.40;79.10
9057;DHT22;4563;54.756;9.400;2024-03-06T14:14:47;8.40;79.10
9057;DHT22;4563;54.756;9.400;2024-03-06T14:17:14;8.40;79.10
9057;DHT22;4563;54.756;9.400;2024-03-06T14:19:41;8.40;79.20
9057;DHT22;4563;54.756;9.400;2024-03-06T14:22:08;8.40;79.10
9057;DHT22;4563;54.756;9.400;2024-03-06T14:24:35;8.40;79.10
9057;DHT22;4563;54.756;9.400;2024-03-06T14:27:02;8.40;79.10
9057;DHT22;4563;54.756;9.400;2024-03-06T14:29:29;8.30;79.00
9057;DHT22;4563;54.756;9.400;2024-03-06T14:31:59;8.40;79.10
9057;DHT22;4563;54.756;9.400;2024-03-06T14:34:26;8.30;79.00
9057;DHT22;4563;54.756;9.400;2024-03-06T14:36:53;8.30;79.00
9057;DHT22;4563;54.756;9.400;2024-03-06T14:39:20;8.30;79.10
9057;DHT22;4563;54.756;9.400;2024-03-06T14:41:48;8.30;79.10
9057;DHT22;4563;54.756;9.400;2024-03-06T14:44:15;8.30;79.00
9057;DHT22;4563;54.756;9.400;2024-03-06T14:46:42;8.30;79.10
9057;DHT22;4563;54.756;9.400;2024-03-06T14:49:10;8.30;79.00
9057;DHT22;4563;54.756;9.400;2024-03-06T14:51:37;8.30;79.00
9057;DHT22;4563;54.756;9.400;2024-03-06T14:54:04;8.30;79.00
9057;DHT22;4563;54.756;9.400;2024-03-06T14:56:31;8.30;79.00
9057;DHT22;4563;54.756;9.400;2024-03-06T14:58:58;8.20;78.90
9057;DHT22;4563;54.756;9.400;2024-03-06T15:01:25;8.20;78.80
9057;DHT22;4563;54.756;9.400;2024-03-06T15:03:52;8.30;78.90
9057;DHT22;4563;54.756;9.400;2024-03-06T15:06:20;8.20;78.80
9057;DHT22;4563;54.756;9.400;2024-03-06T15:08:48;8.20;78.80
9057;DHT22;4563;54.756;9.400;2024-03-06T15:11:14;8.20;78.80
9057;DHT22;4563;54.756;9.400;2024-03-06T15:13:42;8.20;78.70
9057;DHT22;4563;54.756;9.400;2024-03-06T15:16:08;8.20;78.70
9057;DHT22;4563;54.756;9.400;2024-03-06T15:18:35;8.20;78.70
9057;DHT22;4563;54.756;9.400;2024-03-06T15:21:03;8.20;78.60
9057;DHT22;4563;54.756;9.400;2024-03-06T15:23:31;8.20;78.50
9057;DHT22;4563;54.756;9.400;2024-03-06T15:25:58;8.20;78.50
9057;DHT22;4563;54.756;9.400;2024-03-06T15:28:25;8.20;78.50
9057;DHT22;4563;54.756;9.400;2024-03-06T15:30:52;8.20;78.40
9057;DHT22;4563;54.756;9.400;2024-03-06T15:33:18;8.20;78.40
9057;DHT22;4563;54.756;9.400;2024-03-06T15:35:45;8.20;78.30
9057;DHT22;4563;54.756;9.400;2024-03-06T15:38:12;8.20;78.30
9057;DHT22;4563;54.756;9.400;2024-03-06T15:40:40;8.20;78.30
9057;DHT22;4563;54.756;9.400;2024-03-06T15:43:07;8.20;78.20
9057;DHT22;4563;54.756;9.400;2024-03-06T15:45:34;8.20;78.20
9057;DHT22;4563;54.756;9.400;2024-03-06T15:48:01;8.20;78.20
9057;DHT22;4563;54.756;9.400;2024-03-06T15:50:28;8.20;78.10
9057;DHT22;4563;54.756;9.400;2024-03-06T15:52:54;8.20;78.10
9057;DHT22;4563;54.756;9.400;2024-03-06T15:55:21;8.10;78.00
9057;DHT22;4563;54.756;9.400;2024-03-06T15:57:49;8.10;78.00
9057;DHT22;4563;54.756;9.400;2024-03-06T16:00:16;8.10;78.00
9057;DHT22;4563;54.756;9.400;2024-03-06T16:02:44;8.10;78.00
9057;DHT22;4563;54.756;9.400;2024-03-06T16:05:10;8.10;78.00
9057;DHT22;4563;54.756;9.400;2024-03-06T16:07:38;8.10;77.90
9057;DHT22;4563;54.756;9.400;2024-03-06T16:10:05;8.10;77.90
9057;DHT22;4563;54.756;9.400;2024-03-06T16:12:33;8.10;78.00
9057;DHT22;4563;54.756;9.400;2024-03-06T16:15:01;8.10;78.00
9057;DHT22;4563;54.756;9.400;2024-03-06T16:17:29;8.10;77.90
9057;DHT22;4563;54.756;9.400;2024-03-06T16:19:56;8.00;77.80